Terminal Aerodrome Forecast
Issued by NWS

Home | Current Version | Previous Version | Text Only | Print | Product List | Glossary On
Versions: 1 2 3 4 5 6 7 8 9 10 11 12 13 14 15 16 17 18 19 20
000
FTUS43 KLSX 201700
TAFSUS
TAF
KSUS 201721Z 2018/2118 VRB04KT P6SM SCT050
     FM202100 17005KT P6SM BKN050
     FM210200 00000KT P6SM SCT250
     FM211500 19006KT P6SM SCT250=

USA.gov is the U.S. government's official web portal to all federal, state and local government web resources and services.